Current Weather Conditions: station 63115

sailwx.info

Last reported at 2015-Feb-26 03:33 UTC.
Time now 2015-Mar-03 12:42 UTC

Location: N 61°36' E 001°18'.
View on Google Maps.

See reports from other nearby stations

  
Tides and Currents Weather Stations Pressure Air Temp Water Temp Dewpoint Dewpoint Depression Visibility Wind Speed Wind Dir Waves Ship Positions
date/time (UTC)wind fromknots sea level pressurealtimeterstation pressurevisibilityair tempwater tempwave heightnotes
2015-Mar-03 10:00 250 18 27.0 4.7 3.6
2015-Mar-03 09:00 210 14 10.8 5.8 3.4
2015-Mar-03 08:00 210 12 10.8 5.1 3.2
2015-Mar-03 07:00 210 11 10.8 4.0 3.4
2015-Mar-03 06:00 200 12 10.8 3.0 3.3
2015-Mar-03 05:00 280 6 27.0 2.6 3.2
2015-Mar-03 04:00 240 13 27.0 3.3 3.4
2015-Mar-03 03:00 240 12 27.0 3.1 3.4
2015-Mar-03 02:00 240 10 27.0 2.4 3.4
2015-Mar-03 01:00 210 7 27.0 3.3 3.4
2015-Mar-03 00:00 270 13 27.0 2.3 3.6
2015-Mar-02 23:00 240 18 10.8 3.4 3.2
2015-Mar-02 22:00 260 15 27.0 3.5 3.1
2015-Mar-02 21:00 210 17 10.8 7.4 3.2
2015-Mar-02 20:00 240 16 10.8 6.0 3.2
2015-Mar-02 19:00 230 14 27.0 5.3 3.0
2015-Mar-02 18:00 210 13 5.4 6.2 3.1
2015-Mar-02 17:00 220 5 10.8 5.2 3.0
2015-Mar-02 16:00 240 11 10.8 4.9 3.0
2015-Mar-02 15:00 200 9 10.8 4.9 3.0
2015-Mar-02 14:00 220 12 5.4 5.3 3.1
2015-Mar-02 13:00 190 9 27.0 6.4 3.2
2015-Mar-02 12:00 210 9 27.0 5.7 3.3
2015-Mar-02 11:00 230 8 27.0 4.2 3.2
2015-Mar-02 10:00 270 11 27.0 3.7 3.3
2015-Mar-02 09:00 260 12 27.0 3.6 3.5
2015-Mar-02 08:00 280 16 27.0 3.5 3.4
2015-Mar-02 07:00 270 15 27.0 3.4 3.6
2015-Mar-02 06:00 290 16 27.0 3.4 4.0
2015-Mar-02 05:00 280 18 27.0 3.4 3.6
2015-Mar-02 04:00 300 17 27.0 3.2 3.6
2015-Mar-02 03:00 300 17 27.0 3.3 3.5
2015-Mar-02 02:00 310 14 27.0 3.6 3.9
2015-Mar-02 01:00 320 15 5.4 3.6 3.6
2015-Mar-02 00:00 340 15 27.0 3.8 4.2
2015-Mar-01 23:00 310 8 27.0 5.8 4.1
2015-Mar-01 22:00 250 6 27.0 5.9 4.4
2015-Mar-01 21:00 250 8 27.0 5.8 4.3
2015-Mar-01 20:00 260 10 27.0 5.4 4.6
2015-Mar-01 18:00 260 17 27.0 6.0 4.7
2015-Mar-01 17:00 260 20 10.8 5.8 4.8
2015-Mar-01 16:00 250 25 10.8 5.7 4.8
2015-Mar-01 15:00 260 25 1.1 5.9 5.1
2015-Mar-01 14:00 270 22 5.4 5.8 5.1
2015-Mar-01 13:00 290 22 27.0 5.3 5.0